createdAt,value
2019-01-15T00:01:14.853Z,6.57
2019-01-15T00:03:42.412Z,5.53
2019-01-15T00:06:09.656Z,4.17
2019-01-15T00:08:37.276Z,8.03
2019-01-15T00:11:04.572Z,6.40
2019-01-15T00:13:32.141Z,6.17
2019-01-15T00:15:59.483Z,7.03
2019-01-15T00:18:26.728Z,6.60
2019-01-15T00:20:54.504Z,8.10
2019-01-15T00:23:21.775Z,5.43
2019-01-15T00:25:49.109Z,4.90
2019-01-15T00:28:16.372Z,5.60
2019-01-15T00:30:43.705Z,6.87
2019-01-15T00:33:10.957Z,5.40
2019-01-15T00:35:38.193Z,5.37
2019-01-15T00:38:05.464Z,7.83
2019-01-15T00:40:32.785Z,6.37
2019-01-15T00:43:00.381Z,6.27
2019-01-15T00:45:27.937Z,8.57
2019-01-15T00:47:55.405Z,9.17
2019-01-15T00:50:22.965Z,7.37
2019-01-15T00:52:50.226Z,6.07
2019-01-15T00:55:17.458Z,6.43
2019-01-15T00:57:45.025Z,8.07
2019-01-15T01:00:18.009Z,5.40
2019-01-15T01:02:45.669Z,3.83
2019-01-15T01:05:13.496Z,5.63
2019-01-15T01:07:40.993Z,7.57
2019-01-15T01:10:09.053Z,7.77
2019-01-15T01:12:36.624Z,4.27
2019-01-15T01:15:05.601Z,6.20
2019-01-15T01:17:32.937Z,8.40
2019-01-15T01:20:00.525Z,5.37
2019-01-15T01:22:27.760Z,6.50
2019-01-15T01:24:55.012Z,7.83
2019-01-15T01:27:22.265Z,6.83
2019-01-15T01:29:49.544Z,7.80
2019-01-15T01:32:16.793Z,10.07
2019-01-15T01:34:44.065Z,9.13
2019-01-15T01:37:11.324Z,8.43
2019-01-15T01:39:38.680Z,7.40
2019-01-15T01:42:06.409Z,8.60
2019-01-15T01:44:33.678Z,6.53
2019-01-15T01:47:01.024Z,5.03
2019-01-15T01:49:28.282Z,9.57
2019-01-15T01:51:55.641Z,7.53
2019-01-15T01:54:22.898Z,7.27
2019-01-15T01:56:50.941Z,13.80
2019-01-15T01:59:18.233Z,12.57
2019-01-15T02:01:45.459Z,12.40
2019-01-15T02:04:12.905Z,9.13
2019-01-15T02:06:40.145Z,7.93
2019-01-15T02:09:09.970Z,7.00
2019-01-15T02:11:37.530Z,13.27
2019-01-15T02:14:04.985Z,11.47
2019-01-15T02:16:32.108Z,13.63
2019-01-15T02:18:59.722Z,11.17
2019-01-15T02:21:27.249Z,9.83
2019-01-15T02:23:54.498Z,10.70
2019-01-15T02:26:21.721Z,16.63
2019-01-15T02:28:48.978Z,12.20
2019-01-15T02:31:16.550Z,17.80
2019-01-15T02:33:44.122Z,12.43
2019-01-15T02:36:11.685Z,16.80
2019-01-15T02:38:38.942Z,13.13
2019-01-15T02:41:06.209Z,17.47
2019-01-15T02:43:33.384Z,17.63
2019-01-15T02:46:01.001Z,15.17
2019-01-15T02:48:28.238Z,19.67
2019-01-15T02:50:55.605Z,15.37
2019-01-15T02:53:23.167Z,14.20
2019-01-15T02:55:50.437Z,23.97
2019-01-15T02:58:17.701Z,18.33
2019-01-15T03:00:45.226Z,19.63
2019-01-15T03:03:12.471Z,23.37
2019-01-15T03:05:39.826Z,17.33
2019-01-15T03:08:07.086Z,18.53
2019-01-15T03:10:34.342Z,22.77
2019-01-15T03:13:01.566Z,19.37
2019-01-15T03:15:29.141Z,14.33
2019-01-15T03:17:56.361Z,16.53
2019-01-15T03:20:23.850Z,21.13
2019-01-15T03:22:51.073Z,18.90
2019-01-15T03:25:18.979Z,25.17
2019-01-15T03:27:46.295Z,17.87
2019-01-15T03:30:16.427Z,18.63
2019-01-15T03:32:44.124Z,20.73
2019-01-15T03:35:11.766Z,19.63
2019-01-15T03:37:39.329Z,20.67
2019-01-15T03:40:11.468Z,24.27
2019-01-15T03:42:38.951Z,18.80
2019-01-15T03:45:06.418Z,23.90
2019-01-15T03:47:34.000Z,23.83
2019-01-15T03:50:01.341Z,26.27
2019-01-15T03:52:28.670Z,27.70
2019-01-15T03:54:55.993Z,24.60
2019-01-15T03:57:23.586Z,21.50
2019-01-15T03:59:50.857Z,22.03
2019-01-15T04:02:18.188Z,19.17
2019-01-15T04:04:45.861Z,24.43
2019-01-15T04:07:13.716Z,24.37
2019-01-15T04:09:41.682Z,18.87
2019-01-15T04:12:09.028Z,19.73
2019-01-15T04:14:36.596Z,24.57
2019-01-15T04:17:03.858Z,22.00
2019-01-15T04:19:31.094Z,19.93
2019-01-15T04:21:58.357Z,21.37
2019-01-15T04:24:25.612Z,24.33
2019-01-15T04:26:53.320Z,18.43
2019-01-15T04:29:20.572Z,18.73
2019-01-15T04:31:48.516Z,19.70
2019-01-15T04:34:15.777Z,23.40
2019-01-15T04:36:43.002Z,21.37
2019-01-15T04:39:10.550Z,19.10
2019-01-15T04:41:37.788Z,26.43
2019-01-15T04:44:05.360Z,21.33
2019-01-15T04:46:32.593Z,24.70
2019-01-15T04:49:00.185Z,23.83
2019-01-15T04:51:27.833Z,29.20
2019-01-15T04:53:55.101Z,20.67
2019-01-15T04:56:22.330Z,23.40
2019-01-15T04:58:49.889Z,22.03
2019-01-15T05:01:17.210Z,24.77
2019-01-15T05:03:44.808Z,21.30
2019-01-15T05:06:12.571Z,22.57
2019-01-15T05:08:40.130Z,20.17
2019-01-15T05:11:07.364Z,22.80
2019-01-15T05:13:34.624Z,27.47
2019-01-15T05:16:02.196Z,20.03
2019-01-15T05:18:29.453Z,28.73
2019-01-15T05:20:57.009Z,24.67
2019-01-15T05:23:24.578Z,26.07
2019-01-15T05:25:51.905Z,27.27
2019-01-15T05:28:19.266Z,33.03
2019-01-15T05:30:46.621Z,25.97
2019-01-15T05:33:13.858Z,27.93
2019-01-15T05:35:41.123Z,30.77
2019-01-15T05:38:08.689Z,27.10
2019-01-15T05:40:36.248Z,23.13
2019-01-15T05:43:03.678Z,21.77
2019-01-15T05:45:36.148Z,25.47
2019-01-15T05:48:07.584Z,29.03
2019-01-15T05:50:50.425Z,24.80
2019-01-15T05:53:18.005Z,25.93
2019-01-15T05:55:45.262Z,22.57
2019-01-15T05:58:12.496Z,23.77
2019-01-15T06:00:39.748Z,22.13
2019-01-15T06:03:06.984Z,22.50
2019-01-15T06:05:34.244Z,26.57
2019-01-15T06:08:01.480Z,28.47
2019-01-15T06:10:29.108Z,23.73
2019-01-15T06:12:56.357Z,25.53
2019-01-15T06:15:23.626Z,23.53
2019-01-15T06:17:50.860Z,24.40
2019-01-15T06:20:18.128Z,20.63
2019-01-15T06:22:45.617Z,22.43
2019-01-15T06:25:13.199Z,19.83
2019-01-15T06:27:40.852Z,25.70
2019-01-15T06:30:11.008Z,24.67
2019-01-15T06:32:38.253Z,25.80
2019-01-15T06:35:05.625Z,24.23
2019-01-15T06:37:32.865Z,26.87
2019-01-15T06:40:00.521Z,22.53
2019-01-15T06:42:27.762Z,22.13
2019-01-15T06:44:55.331Z,24.70
2019-01-15T06:47:23.868Z,26.43
2019-01-15T06:49:51.165Z,23.37
2019-01-15T06:52:18.512Z,21.97
2019-01-15T06:54:45.789Z,21.20
2019-01-15T06:57:13.155Z,24.73
2019-01-15T06:59:40.431Z,22.63
2019-01-15T07:02:07.908Z,20.47
2019-01-15T07:04:35.189Z,21.73
2019-01-15T07:07:02.432Z,20.67
2019-01-15T07:09:29.704Z,19.67
2019-01-15T07:11:57.225Z,21.20
2019-01-15T07:14:24.781Z,19.70
2019-01-15T07:16:52.348Z,21.33
2019-01-15T07:19:19.907Z,18.93
2019-01-15T07:21:47.461Z,21.47
2019-01-15T07:24:15.433Z,14.67
2019-01-15T07:26:42.994Z,15.80
2019-01-15T07:29:10.236Z,22.97
2019-01-15T07:31:37.502Z,16.73
2019-01-15T07:34:04.753Z,23.00
2019-01-15T07:36:32.018Z,16.83
2019-01-15T07:38:59.263Z,16.60
2019-01-15T07:41:26.535Z,16.93
2019-01-15T07:43:54.161Z,17.93
2019-01-15T07:46:21.737Z,17.93
2019-01-15T07:48:48.980Z,20.80
2019-01-15T07:51:16.240Z,16.77
2019-01-15T07:53:43.781Z,17.03
2019-01-15T07:56:11.341Z,17.00
2019-01-15T07:58:38.662Z,20.40
2019-01-15T08:01:07.497Z,21.07
2019-01-15T08:03:35.658Z,24.83
2019-01-15T08:06:03.034Z,28.97
2019-01-15T08:08:30.307Z,17.97
2019-01-15T08:10:57.564Z,25.20
2019-01-15T08:13:24.793Z,17.20
2019-01-15T08:15:52.052Z,19.40
2019-01-15T08:18:19.317Z,17.47
2019-01-15T08:20:46.569Z,17.30
2019-01-15T08:23:13.845Z,26.33
2019-01-15T08:25:41.116Z,23.47
2019-01-15T08:28:08.693Z,20.97
2019-01-15T08:30:36.645Z,19.50
2019-01-15T08:33:04.089Z,23.07
2019-01-15T08:35:33.388Z,17.33
2019-01-15T08:38:00.693Z,15.53
2019-01-15T08:40:28.023Z,16.87
2019-01-15T08:42:55.274Z,14.67
2019-01-15T08:45:22.778Z,19.00
2019-01-15T08:47:51.972Z,17.20
2019-01-15T08:50:21.313Z,17.57
2019-01-15T08:52:48.600Z,17.57
2019-01-15T08:55:15.869Z,20.70
2019-01-15T08:57:43.393Z,20.30
2019-01-15T09:00:11.952Z,21.10
2019-01-15T09:02:39.206Z,19.07
2019-01-15T09:05:06.591Z,22.43
2019-01-15T09:07:34.053Z,18.13
2019-01-15T09:10:01.598Z,28.30
2019-01-15T09:12:28.949Z,18.97
2019-01-15T09:14:56.781Z,22.13
2019-01-15T09:17:24.272Z,25.43
2019-01-15T09:19:51.521Z,24.80
2019-01-15T09:22:18.829Z,22.03
2019-01-15T09:24:46.052Z,26.27
2019-01-15T09:27:13.432Z,23.67
2019-01-15T09:29:41.052Z,27.87
2019-01-15T09:32:08.325Z,25.47
2019-01-15T09:34:35.572Z,27.77
2019-01-15T09:37:04.835Z,23.40
2019-01-15T09:39:32.201Z,32.00
2019-01-15T09:41:59.497Z,26.50
2019-01-15T09:44:33.841Z,26.30
2019-01-15T09:46:56.208Z,29.10
2019-01-15T09:49:23.469Z,25.80
2019-01-15T09:51:52.031Z,25.90
2019-01-15T09:54:19.601Z,30.00
2019-01-15T09:56:47.162Z,30.00
2019-01-15T09:59:14.821Z,28.57
2019-01-15T10:01:42.395Z,27.97
2019-01-15T10:04:09.654Z,29.37
2019-01-15T10:06:37.295Z,28.07
2019-01-15T10:09:08.140Z,23.40
2019-01-15T10:11:35.461Z,30.30
2019-01-15T10:14:02.945Z,31.40
2019-01-15T10:16:30.208Z,29.07
2019-01-15T10:18:57.464Z,27.40
2019-01-15T10:21:24.832Z,26.60
2019-01-15T10:23:52.115Z,25.93
2019-01-15T10:26:19.383Z,25.50
2019-01-15T10:28:46.669Z,25.03
2019-01-15T10:32:08.086Z,29.43
2019-01-15T10:34:37.589Z,25.77
2019-01-15T10:37:04.182Z,27.10
2019-01-15T10:39:31.527Z,27.13
2019-01-15T10:42:00.798Z,28.07
2019-01-15T10:44:28.128Z,27.67
2019-01-15T10:46:55.405Z,29.03
2019-01-15T10:49:22.937Z,26.13
2019-01-15T10:51:50.209Z,25.27
2019-01-15T10:54:17.477Z,29.03
2019-01-15T10:56:44.745Z,24.40
2019-01-15T10:59:11.988Z,24.60
2019-01-15T11:01:39.253Z,20.60
2019-01-15T11:04:06.492Z,21.43
2019-01-15T11:06:34.004Z,19.20
2019-01-15T11:09:01.392Z,25.10
2019-01-15T11:11:28.645Z,18.20
2019-01-15T11:13:56.272Z,16.30
2019-01-15T11:16:23.944Z,17.97
2019-01-15T11:18:51.909Z,15.80
2019-01-15T11:21:19.465Z,17.27
2019-01-15T11:23:46.768Z,16.97
2019-01-15T11:26:14.051Z,16.73
2019-01-15T11:28:41.348Z,16.07
2019-01-15T11:31:08.877Z,17.27
2019-01-15T11:33:36.152Z,15.60
2019-01-15T11:36:03.590Z,14.57
2019-01-15T11:38:30.869Z,15.70
2019-01-15T11:40:58.113Z,14.03
2019-01-15T11:43:25.650Z,17.67
2019-01-15T11:45:52.893Z,12.23
2019-01-15T11:48:20.488Z,17.43
2019-01-15T11:50:47.834Z,14.83
2019-01-15T11:53:15.101Z,14.20
2019-01-15T11:55:42.646Z,14.23
2019-01-15T11:58:10.010Z,15.70
2019-01-15T12:00:44.392Z,16.77
2019-01-15T12:03:29.895Z,15.17
2019-01-15T12:06:23.397Z,15.00
2019-01-15T12:09:12.065Z,18.13
2019-01-15T12:11:50.268Z,16.30
2019-01-15T12:14:43.469Z,14.33
2019-01-15T12:17:32.893Z,18.50
2019-01-15T12:20:20.830Z,17.70
2019-01-15T12:23:06.869Z,16.90
2019-01-15T12:25:52.293Z,17.50
2019-01-15T12:28:39.140Z,18.53
2019-01-15T12:31:35.129Z,16.57
2019-01-15T12:34:20.699Z,19.93
2019-01-15T12:37:07.545Z,20.70
2019-01-15T12:40:12.446Z,17.77
2019-01-15T12:42:59.233Z,18.83
2019-01-15T12:45:58.726Z,20.13
2019-01-15T12:48:54.469Z,20.90
2019-01-15T12:51:44.122Z,20.03
2019-01-15T12:54:22.308Z,19.10
2019-01-15T12:57:09.158Z,18.47
2019-01-15T12:59:54.826Z,17.77
2019-01-15T13:02:39.281Z,16.57
2019-01-15T13:05:29.433Z,23.20
2019-01-15T13:08:20.777Z,16.07
2019-01-15T13:11:07.673Z,21.17
2019-01-15T13:14:09.608Z,17.77
2019-01-15T13:16:55.216Z,15.57
2019-01-15T13:19:40.797Z,32.23
2019-01-15T13:22:46.009Z,17.60
2019-01-15T13:25:47.921Z,34.43
2019-01-15T13:28:43.568Z,18.60
2019-01-15T13:31:36.144Z,15.03
2019-01-15T13:34:26.268Z,18.53
2019-01-15T13:37:24.949Z,16.80
2019-01-15T13:40:14.509Z,17.73
2019-01-15T13:43:00.228Z,16.90
2019-01-15T13:45:45.750Z,15.73
2019-01-15T13:48:29.553Z,15.97
2019-01-15T13:51:19.161Z,12.80
2019-01-15T13:54:13.385Z,14.87
2019-01-15T13:56:59.197Z,13.47
2019-01-15T13:59:49.085Z,12.93
2019-01-15T14:02:39.886Z,13.13
2019-01-15T14:05:33.392Z,14.53
2019-01-15T14:08:18.720Z,18.43
2019-01-15T14:10:55.280Z,13.40
2019-01-15T14:13:31.569Z,15.07
2019-01-15T14:16:11.977Z,13.87
2019-01-15T14:19:13.013Z,17.97
2019-01-15T14:21:59.824Z,16.03
2019-01-15T14:24:46.693Z,16.10
2019-01-15T14:27:32.067Z,13.67
2019-01-15T14:30:17.496Z,17.13
2019-01-15T14:32:59.697Z,14.90
2019-01-15T14:35:37.665Z,16.47
2019-01-15T14:38:17.288Z,16.20
2019-01-15T14:41:02.619Z,15.40
2019-01-15T14:44:04.268Z,16.00
2019-01-15T14:46:54.011Z,16.57
2019-01-15T14:49:49.926Z,12.80
2019-01-15T14:52:39.448Z,17.53
2019-01-15T14:55:23.222Z,12.83
2019-01-15T14:58:12.888Z,10.77
2019-01-15T15:01:05.713Z,18.50
2019-01-15T15:03:39.834Z,16.03
2019-01-15T15:06:20.033Z,14.77
2019-01-15T15:09:09.464Z,13.27
2019-01-15T15:12:08.704Z,13.63
2019-01-15T15:14:55.197Z,13.20
2019-01-15T15:17:40.501Z,14.40
2019-01-15T15:20:31.146Z,18.03
2019-01-15T15:23:30.204Z,12.00
2019-01-15T15:26:14.612Z,12.77
2019-01-15T15:28:55.514Z,14.03
2019-01-15T15:31:54.557Z,11.87
2019-01-15T15:34:31.945Z,12.07
2019-01-15T15:37:17.489Z,13.87
2019-01-15T15:40:16.136Z,17.03
2019-01-15T15:43:11.117Z,14.50
2019-01-15T15:45:57.921Z,13.20
2019-01-15T15:48:48.122Z,14.67
2019-01-15T15:51:46.889Z,13.97
2019-01-15T15:54:32.346Z,11.13
2019-01-15T15:57:15.970Z,11.10
2019-01-15T16:00:01.650Z,12.93
2019-01-15T16:02:51.669Z,9.93
2019-01-15T16:05:47.346Z,11.23
2019-01-15T16:08:36.953Z,11.60
2019-01-15T16:11:26.572Z,17.90
2019-01-15T16:14:22.013Z,10.73
2019-01-15T16:17:11.344Z,11.30
2019-01-15T16:20:03.268Z,14.63
2019-01-15T16:22:56.073Z,12.07
2019-01-15T16:25:58.051Z,14.93
2019-01-15T16:28:40.289Z,12.73
2019-01-15T16:31:25.781Z,10.23
2019-01-15T16:34:12.630Z,13.07
2019-01-15T16:37:02.845Z,8.97
2019-01-15T16:39:49.597Z,12.57
2019-01-15T16:42:28.536Z,10.67
2019-01-15T16:45:28.324Z,11.33
2019-01-15T16:48:30.120Z,10.77
2019-01-15T16:51:14.281Z,14.30
2019-01-15T16:53:59.032Z,14.50
2019-01-15T16:56:42.744Z,15.50
2019-01-15T16:59:23.397Z,15.40
2019-01-15T17:02:09.162Z,10.93
2019-01-15T17:04:54.937Z,13.37
2019-01-15T17:07:47.561Z,10.50
2019-01-15T17:10:33.245Z,13.20
2019-01-15T17:13:18.754Z,12.80
2019-01-15T17:16:00.056Z,11.10
2019-01-15T17:18:41.088Z,11.40
2019-01-15T17:21:34.861Z,16.90
2019-01-15T17:24:21.969Z,12.07
2019-01-15T17:27:09.089Z,14.20
2019-01-15T17:30:07.108Z,14.30
2019-01-15T17:32:42.509Z,15.70
2019-01-15T17:35:18.108Z,19.20
2019-01-15T17:38:03.941Z,11.17
2019-01-15T17:40:49.453Z,14.80
2019-01-15T17:43:48.077Z,18.13
2019-01-15T17:46:22.277Z,16.87
2019-01-15T17:49:08.424Z,21.57
2019-01-15T17:52:03.842Z,21.23
2019-01-15T17:54:49.218Z,12.70
2019-01-15T17:57:34.809Z,17.83
2019-01-15T18:00:27.484Z,17.83
2019-01-15T18:03:11.785Z,44.47
2019-01-15T18:05:57.141Z,26.67
2019-01-15T18:08:43.962Z,10.67
2019-01-15T18:11:33.472Z,20.00
2019-01-15T18:14:18.011Z,17.13
2019-01-15T18:17:04.005Z,13.43
2019-01-15T18:19:56.643Z,22.80
2019-01-15T18:22:42.325Z,30.57
2019-01-15T18:25:47.369Z,27.70
2019-01-15T18:28:32.940Z,16.23
2019-01-15T18:31:25.646Z,14.40
2019-01-15T18:34:12.617Z,14.20
2019-01-15T18:36:58.164Z,18.83
2019-01-15T18:39:43.582Z,23.20
2019-01-15T18:42:39.382Z,12.67
2019-01-15T18:45:30.293Z,18.27
2019-01-15T18:48:16.076Z,16.07
2019-01-15T18:51:12.004Z,14.83
2019-01-15T18:54:07.792Z,17.20
2019-01-15T18:57:06.833Z,14.30
2019-01-15T18:59:52.311Z,13.73
2019-01-15T19:02:38.805Z,17.63
2019-01-15T19:05:16.769Z,16.23
2019-01-15T19:07:54.936Z,14.80
2019-01-15T19:10:45.100Z,15.93
2019-01-15T19:13:24.644Z,15.63
2019-01-15T19:16:27.122Z,14.23
2019-01-15T19:19:15.361Z,14.60
2019-01-15T19:21:59.157Z,13.63
2019-01-15T19:24:44.457Z,17.37
2019-01-15T19:27:36.676Z,16.60
2019-01-15T19:30:24.754Z,10.93
2019-01-15T19:33:17.811Z,14.63
2019-01-15T19:36:04.634Z,13.53
2019-01-15T19:38:50.609Z,13.23
2019-01-15T19:41:40.617Z,13.07
2019-01-15T19:44:26.215Z,14.03
2019-01-15T19:47:11.499Z,14.60
2019-01-15T19:49:54.497Z,17.77
2019-01-15T19:52:49.937Z,17.13
2019-01-15T19:55:42.966Z,18.93
2019-01-15T19:58:23.921Z,19.00
2019-01-15T20:01:19.996Z,18.03
2019-01-15T20:04:04.018Z,16.13
2019-01-15T20:06:57.234Z,18.77
2019-01-15T20:09:44.398Z,17.30
2019-01-15T20:12:28.016Z,20.80
2019-01-15T20:15:32.805Z,13.83
2019-01-15T20:18:20.112Z,16.30
2019-01-15T20:21:06.952Z,14.80
2019-01-15T20:23:54.085Z,15.83
2019-01-15T20:26:32.821Z,12.37
2019-01-15T20:29:18.073Z,16.93
2019-01-15T20:32:01.357Z,13.63
2019-01-15T20:34:51.309Z,11.10
2019-01-15T20:37:37.998Z,13.17
2019-01-15T20:40:15.801Z,14.40
2019-01-15T20:43:02.913Z,12.17
2019-01-15T20:45:40.384Z,14.50
2019-01-15T20:48:34.030Z,11.73
2019-01-15T20:51:07.581Z,14.97
2019-01-15T20:53:58.689Z,13.30
2019-01-15T20:56:44.373Z,16.33
2019-01-15T20:59:31.738Z,13.27
2019-01-15T21:02:22.857Z,14.43
2019-01-15T21:05:15.233Z,18.07
2019-01-15T21:07:57.496Z,14.93
2019-01-15T21:10:43.781Z,17.27
2019-01-15T21:13:30.536Z,15.77
2019-01-15T21:16:17.064Z,17.60
2019-01-15T21:19:04.202Z,18.13
2019-01-15T21:21:53.529Z,16.80
2019-01-15T21:24:38.724Z,17.70
2019-01-15T21:27:44.080Z,14.43
2019-01-15T21:30:34.057Z,15.40
2019-01-15T21:33:12.761Z,21.83
2019-01-15T21:35:59.600Z,19.33
2019-01-15T21:38:45.076Z,20.37
2019-01-15T21:41:27.650Z,17.53
2019-01-15T21:44:12.846Z,19.83
2019-01-15T21:47:08.624Z,22.40
2019-01-15T21:49:47.996Z,17.77
2019-01-15T21:52:38.085Z,15.80
2019-01-15T21:55:21.624Z,20.43
2019-01-15T21:58:22.868Z,17.17
2019-01-15T22:01:25.476Z,16.67
2019-01-15T22:04:21.689Z,17.37
2019-01-15T22:07:10.822Z,20.83
2019-01-15T22:09:58.005Z,20.63
2019-01-15T22:12:55.929Z,19.17
2019-01-15T22:15:34.969Z,19.03
2019-01-15T22:18:18.047Z,21.70
2019-01-15T22:21:04.226Z,17.90
2019-01-15T22:24:05.960Z,17.10
2019-01-15T22:27:11.002Z,17.87
2019-01-15T22:30:15.936Z,20.70
2019-01-15T22:33:14.712Z,18.57
2019-01-15T22:36:02.625Z,19.80
2019-01-15T22:38:48.104Z,18.27
2019-01-15T22:41:33.785Z,17.97
2019-01-15T22:44:12.473Z,19.30
2019-01-15T22:46:57.658Z,18.77
2019-01-15T22:49:53.690Z,15.17
2019-01-15T22:52:48.466Z,18.27
2019-01-15T22:55:35.537Z,15.20
2019-01-15T22:58:28.185Z,12.00
2019-01-15T23:01:15.609Z,14.57
2019-01-15T23:04:05.372Z,14.27
2019-01-15T23:07:10.527Z,13.70
2019-01-15T23:09:50.424Z,11.37
2019-01-15T23:12:34.829Z,17.40
2019-01-15T23:15:20.678Z,15.17
2019-01-15T23:18:16.113Z,11.60
2019-01-15T23:21:14.644Z,11.50
2019-01-15T23:24:03.635Z,14.03
2019-01-15T23:26:54.756Z,15.73
2019-01-15T23:29:56.456Z,12.63
2019-01-15T23:32:41.597Z,15.40
2019-01-15T23:35:27.013Z,12.57
2019-01-15T23:38:06.101Z,11.83
2019-01-15T23:40:52.017Z,12.63
2019-01-15T23:43:37.642Z,13.07
2019-01-15T23:46:36.177Z,11.87
2019-01-15T23:49:25.946Z,15.47
2019-01-15T23:52:07.097Z,12.57
2019-01-15T23:55:10.544Z,12.67
2019-01-15T23:57:58.456Z,12.57
